sensor_id;sensor_type;location;lat;lon;timestamp;temperature;humidity
12874;DHT22;6505;51.114;13.128;2023-04-08T00:01:31;13.40;50.80
12874;DHT22;6505;51.114;13.128;2023-04-08T00:03:59;13.30;50.70
12874;DHT22;6505;51.114;13.128;2023-04-08T00:06:27;13.30;50.90
12874;DHT22;6505;51.114;13.128;2023-04-08T00:08:57;13.30;50.90
12874;DHT22;6505;51.114;13.128;2023-04-08T00:11:25;13.30;51.00
12874;DHT22;6505;51.114;13.128;2023-04-08T00:13:54;13.40;51.10
12874;DHT22;6505;51.114;13.128;2023-04-08T00:16:22;13.30;51.10
12874;DHT22;6505;51.114;13.128;2023-04-08T00:18:50;13.40;51.10
12874;DHT22;6505;51.114;13.128;2023-04-08T00:21:18;13.30;51.30
12874;DHT22;6505;51.114;13.128;2023-04-08T00:23:46;13.30;51.40
12874;DHT22;6505;51.114;13.128;2023-04-08T00:26:15;13.40;51.50
12874;DHT22;6505;51.114;13.128;2023-04-08T00:28:43;13.30;51.50
12874;DHT22;6505;51.114;13.128;2023-04-08T00:31:13;13.30;51.50
12874;DHT22;6505;51.114;13.128;2023-04-08T00:33:42;13.40;51.70
12874;DHT22;6505;51.114;13.128;2023-04-08T00:36:09;13.30;51.60
12874;DHT22;6505;51.114;13.128;2023-04-08T00:38:37;13.30;51.60
12874;DHT22;6505;51.114;13.128;2023-04-08T00:41:05;13.30;51.70
12874;DHT22;6505;51.114;13.128;2023-04-08T00:43:33;13.30;51.80
12874;DHT22;6505;51.114;13.128;2023-04-08T00:46:01;13.30;51.70
12874;DHT22;6505;51.114;13.128;2023-04-08T00:48:31;13.30;51.90
12874;DHT22;6505;51.114;13.128;2023-04-08T00:50:59;13.30;51.90
12874;DHT22;6505;51.114;13.128;2023-04-08T00:53:30;13.30;51.90
12874;DHT22;6505;51.114;13.128;2023-04-08T00:55:58;13.40;52.10
12874;DHT22;6505;51.114;13.128;2023-04-08T00:58:27;13.30;52.00
12874;DHT22;6505;51.114;13.128;2023-04-08T01:01:02;13.30;52.20
12874;DHT22;6505;51.114;13.128;2023-04-08T01:03:42;13.30;52.30
12874;DHT22;6505;51.114;13.128;2023-04-08T01:06:22;13.30;52.30
12874;DHT22;6505;51.114;13.128;2023-04-08T01:08:55;13.30;52.20
12874;DHT22;6505;51.114;13.128;2023-04-08T01:11:26;13.30;52.20
12874;DHT22;6505;51.114;13.128;2023-04-08T01:14:00;13.30;52.40
12874;DHT22;6505;51.114;13.128;2023-04-08T01:16:32;13.30;52.40
12874;DHT22;6505;51.114;13.128;2023-04-08T01:19:04;13.30;51.90
12874;DHT22;6505;51.114;13.128;2023-04-08T01:21:36;13.30;52.50
12874;DHT22;6505;51.114;13.128;2023-04-08T01:24:08;13.30;52.50
12874;DHT22;6505;51.114;13.128;2023-04-08T01:26:46;13.30;52.60
12874;DHT22;6505;51.114;13.128;2023-04-08T01:29:15;13.30;52.50
12874;DHT22;6505;51.114;13.128;2023-04-08T01:31:44;13.30;52.50
12874;DHT22;6505;51.114;13.128;2023-04-08T01:34:14;13.30;52.60
12874;DHT22;6505;51.114;13.128;2023-04-08T01:36:46;13.30;52.60
12874;DHT22;6505;51.114;13.128;2023-04-08T01:39:15;13.30;52.70
12874;DHT22;6505;51.114;13.128;2023-04-08T01:41:47;13.30;52.80
12874;DHT22;6505;51.114;13.128;2023-04-08T01:44:17;13.30;52.80
12874;DHT22;6505;51.114;13.128;2023-04-08T01:46:47;13.30;52.80
12874;DHT22;6505;51.114;13.128;2023-04-08T01:49:17;13.30;52.90
12874;DHT22;6505;51.114;13.128;2023-04-08T01:51:46;13.30;52.80
12874;DHT22;6505;51.114;13.128;2023-04-08T01:54:15;13.30;52.90
12874;DHT22;6505;51.114;13.128;2023-04-08T01:56:44;13.40;52.80
12874;DHT22;6505;51.114;13.128;2023-04-08T01:59:16;13.40;53.00
12874;DHT22;6505;51.114;13.128;2023-04-08T02:01:46;13.30;52.90
12874;DHT22;6505;51.114;13.128;2023-04-08T02:04:15;13.40;53.00
12874;DHT22;6505;51.114;13.128;2023-04-08T02:06:44;13.30;52.90
12874;DHT22;6505;51.114;13.128;2023-04-08T02:09:13;13.30;52.90
12874;DHT22;6505;51.114;13.128;2023-04-08T02:11:41;13.30;53.00
12874;DHT22;6505;51.114;13.128;2023-04-08T02:14:10;13.30;53.10
12874;DHT22;6505;51.114;13.128;2023-04-08T02:16:40;13.30;53.10
12874;DHT22;6505;51.114;13.128;2023-04-08T02:19:20;13.30;53.30
12874;DHT22;6505;51.114;13.128;2023-04-08T02:21:57;13.30;53.20
12874;DHT22;6505;51.114;13.128;2023-04-08T02:24:31;13.30;53.30
12874;DHT22;6505;51.114;13.128;2023-04-08T02:27:02;13.30;52.70
12874;DHT22;6505;51.114;13.128;2023-04-08T02:29:33;13.30;53.10
12874;DHT22;6505;51.114;13.128;2023-04-08T02:32:03;13.30;53.30
12874;DHT22;6505;51.114;13.128;2023-04-08T02:34:34;13.30;53.30
12874;DHT22;6505;51.114;13.128;2023-04-08T02:37:03;13.30;53.40
12874;DHT22;6505;51.114;13.128;2023-04-08T02:39:32;13.40;53.10
12874;DHT22;6505;51.114;13.128;2023-04-08T02:42:00;13.40;53.20
12874;DHT22;6505;51.114;13.128;2023-04-08T02:44:28;13.30;53.40
12874;DHT22;6505;51.114;13.128;2023-04-08T02:47:01;13.30;53.40
12874;DHT22;6505;51.114;13.128;2023-04-08T02:49:29;13.40;53.50
12874;DHT22;6505;51.114;13.128;2023-04-08T02:51:57;13.40;53.50
12874;DHT22;6505;51.114;13.128;2023-04-08T02:54:25;13.40;53.50
12874;DHT22;6505;51.114;13.128;2023-04-08T02:56:53;13.30;53.60
12874;DHT22;6505;51.114;13.128;2023-04-08T02:59:21;13.30;53.60
12874;DHT22;6505;51.114;13.128;2023-04-08T03:01:48;13.30;53.80
12874;DHT22;6505;51.114;13.128;2023-04-08T03:04:18;13.40;53.90
12874;DHT22;6505;51.114;13.128;2023-04-08T03:06:46;13.30;54.00
12874;DHT22;6505;51.114;13.128;2023-04-08T03:09:14;13.30;54.00
12874;DHT22;6505;51.114;13.128;2023-04-08T03:11:42;13.30;54.10
12874;DHT22;6505;51.114;13.128;2023-04-08T03:14:10;13.30;54.10
12874;DHT22;6505;51.114;13.128;2023-04-08T03:16:38;13.30;54.30
12874;DHT22;6505;51.114;13.128;2023-04-08T03:19:06;13.30;54.30
12874;DHT22;6505;51.114;13.128;2023-04-08T03:21:35;13.40;54.40
12874;DHT22;6505;51.114;13.128;2023-04-08T03:24:03;13.30;54.50
12874;DHT22;6505;51.114;13.128;2023-04-08T03:26:31;13.30;54.50
12874;DHT22;6505;51.114;13.128;2023-04-08T03:28:59;13.40;53.90
12874;DHT22;6505;51.114;13.128;2023-04-08T03:31:28;13.30;54.50
12874;DHT22;6505;51.114;13.128;2023-04-08T03:33:56;13.30;54.40
12874;DHT22;6505;51.114;13.128;2023-04-08T03:36:24;13.30;54.40
12874;DHT22;6505;51.114;13.128;2023-04-08T03:38:53;13.30;54.40
12874;DHT22;6505;51.114;13.128;2023-04-08T03:41:21;13.40;54.70
12874;DHT22;6505;51.114;13.128;2023-04-08T03:43:49;13.40;54.80
12874;DHT22;6505;51.114;13.128;2023-04-08T03:46:17;13.30;54.70
12874;DHT22;6505;51.114;13.128;2023-04-08T03:48:45;13.30;54.60
12874;DHT22;6505;51.114;13.128;2023-04-08T03:51:13;13.30;54.60
12874;DHT22;6505;51.114;13.128;2023-04-08T03:53:41;13.40;54.70
12874;DHT22;6505;51.114;13.128;2023-04-08T03:56:11;13.30;54.70
12874;DHT22;6505;51.114;13.128;2023-04-08T03:58:39;13.30;54.90
12874;DHT22;6505;51.114;13.128;2023-04-08T04:01:06;13.30;55.00
12874;DHT22;6505;51.114;13.128;2023-04-08T04:03:34;13.30;55.10
12874;DHT22;6505;51.114;13.128;2023-04-08T04:06:02;13.30;55.00
12874;DHT22;6505;51.114;13.128;2023-04-08T04:08:31;13.40;55.10
12874;DHT22;6505;51.114;13.128;2023-04-08T04:10:59;13.30;55.10
12874;DHT22;6505;51.114;13.128;2023-04-08T04:13:28;13.30;54.90
12874;DHT22;6505;51.114;13.128;2023-04-08T04:15:56;13.30;55.20
12874;DHT22;6505;51.114;13.128;2023-04-08T04:18:24;13.30;55.00
12874;DHT22;6505;51.114;13.128;2023-04-08T04:20:52;13.30;55.20
12874;DHT22;6505;51.114;13.128;2023-04-08T04:23:20;13.30;55.40
12874;DHT22;6505;51.114;13.128;2023-04-08T04:25:49;13.30;55.40
12874;DHT22;6505;51.114;13.128;2023-04-08T04:28:17;13.30;55.40
12874;DHT22;6505;51.114;13.128;2023-04-08T04:30:47;13.30;55.40
12874;DHT22;6505;51.114;13.128;2023-04-08T04:33:15;13.30;55.40
12874;DHT22;6505;51.114;13.128;2023-04-08T04:35:43;13.30;55.50
12874;DHT22;6505;51.114;13.128;2023-04-08T04:38:11;13.30;55.60
12874;DHT22;6505;51.114;13.128;2023-04-08T04:40:39;13.30;55.60
12874;DHT22;6505;51.114;13.128;2023-04-08T04:43:07;13.30;55.60
12874;DHT22;6505;51.114;13.128;2023-04-08T04:45:35;13.30;55.50
12874;DHT22;6505;51.114;13.128;2023-04-08T04:48:04;13.30;55.70
12874;DHT22;6505;51.114;13.128;2023-04-08T04:50:33;13.30;55.70
12874;DHT22;6505;51.114;13.128;2023-04-08T04:53:01;13.30;55.40
12874;DHT22;6505;51.114;13.128;2023-04-08T04:55:29;13.30;55.50
12874;DHT22;6505;51.114;13.128;2023-04-08T04:57:57;13.30;55.60
12874;DHT22;6505;51.114;13.128;2023-04-08T05:00:25;13.30;55.70
12874;DHT22;6505;51.114;13.128;2023-04-08T05:02:52;13.30;55.70
12874;DHT22;6505;51.114;13.128;2023-04-08T05:05:22;13.20;55.70
12874;DHT22;6505;51.114;13.128;2023-04-08T05:07:50;13.30;55.90
12874;DHT22;6505;51.114;13.128;2023-04-08T05:10:19;13.30;55.90
12874;DHT22;6505;51.114;13.128;2023-04-08T05:12:47;13.30;55.90
12874;DHT22;6505;51.114;13.128;2023-04-08T05:15:15;13.20;55.70
12874;DHT22;6505;51.114;13.128;2023-04-08T05:17:43;13.30;55.80
12874;DHT22;6505;51.114;13.128;2023-04-08T05:20:11;13.30;55.80
12874;DHT22;6505;51.114;13.128;2023-04-08T05:22:44;13.30;55.90
12874;DHT22;6505;51.114;13.128;2023-04-08T05:25:12;13.30;56.10
12874;DHT22;6505;51.114;13.128;2023-04-08T05:27:40;13.30;56.00
12874;DHT22;6505;51.114;13.128;2023-04-08T05:30:08;13.30;55.90
12874;DHT22;6505;51.114;13.128;2023-04-08T05:32:37;13.30;56.10
12874;DHT22;6505;51.114;13.128;2023-04-08T05:35:05;13.30;56.00
12874;DHT22;6505;51.114;13.128;2023-04-08T05:37:35;13.30;56.20
12874;DHT22;6505;51.114;13.128;2023-04-08T05:40:05;13.30;56.10
12874;DHT22;6505;51.114;13.128;2023-04-08T05:42:34;13.30;56.30
12874;DHT22;6505;51.114;13.128;2023-04-08T05:45:02;13.30;55.00
12874;DHT22;6505;51.114;13.128;2023-04-08T05:47:31;13.30;56.40
12874;DHT22;6505;51.114;13.128;2023-04-08T05:50:00;13.30;56.40
12874;DHT22;6505;51.114;13.128;2023-04-08T05:52:27;13.30;56.40
12874;DHT22;6505;51.114;13.128;2023-04-08T05:54:55;13.30;56.60
12874;DHT22;6505;51.114;13.128;2023-04-08T05:57:25;13.30;56.70
12874;DHT22;6505;51.114;13.128;2023-04-08T05:59:53;13.20;56.60
12874;DHT22;6505;51.114;13.128;2023-04-08T06:02:21;13.30;56.70
12874;DHT22;6505;51.114;13.128;2023-04-08T06:04:49;13.30;56.80
12874;DHT22;6505;51.114;13.128;2023-04-08T06:07:17;13.20;56.80
12874;DHT22;6505;51.114;13.128;2023-04-08T06:09:45;13.30;57.00
12874;DHT22;6505;51.114;13.128;2023-04-08T06:12:13;13.20;57.00
12874;DHT22;6505;51.114;13.128;2023-04-08T06:14:42;13.20;57.10
12874;DHT22;6505;51.114;13.128;2023-04-08T06:17:10;13.30;57.30
12874;DHT22;6505;51.114;13.128;2023-04-08T06:19:38;13.20;57.20
12874;DHT22;6505;51.114;13.128;2023-04-08T06:22:06;13.20;57.10
12874;DHT22;6505;51.114;13.128;2023-04-08T06:24:34;13.30;57.60
12874;DHT22;6505;51.114;13.128;2023-04-08T06:27:02;13.20;56.60
12874;DHT22;6505;51.114;13.128;2023-04-08T06:29:30;13.20;57.70
12874;DHT22;6505;51.114;13.128;2023-04-08T06:32:00;13.20;57.90
12874;DHT22;6505;51.114;13.128;2023-04-08T06:34:28;13.20;58.20
12874;DHT22;6505;51.114;13.128;2023-04-08T06:36:56;13.30;58.30
12874;DHT22;6505;51.114;13.128;2023-04-08T06:39:24;13.30;58.10
12874;DHT22;6505;51.114;13.128;2023-04-08T06:41:52;13.20;58.20
12874;DHT22;6505;51.114;13.128;2023-04-08T06:44:36;13.20;58.30
12874;DHT22;6505;51.114;13.128;2023-04-08T06:47:06;13.30;58.30
12874;DHT22;6505;51.114;13.128;2023-04-08T06:49:34;13.20;58.20
12874;DHT22;6505;51.114;13.128;2023-04-08T06:52:02;13.20;58.50
12874;DHT22;6505;51.114;13.128;2023-04-08T06:54:32;13.30;58.70
12874;DHT22;6505;51.114;13.128;2023-04-08T06:57:00;13.30;58.70
12874;DHT22;6505;51.114;13.128;2023-04-08T06:59:28;13.30;58.90
12874;DHT22;6505;51.114;13.128;2023-04-08T07:01:56;13.30;58.80
12874;DHT22;6505;51.114;13.128;2023-04-08T07:04:25;13.30;59.20
12874;DHT22;6505;51.114;13.128;2023-04-08T07:06:53;13.30;59.20
12874;DHT22;6505;51.114;13.128;2023-04-08T07:09:21;13.30;59.20
12874;DHT22;6505;51.114;13.128;2023-04-08T07:11:49;13.30;59.20
12874;DHT22;6505;51.114;13.128;2023-04-08T07:14:17;13.30;59.40
12874;DHT22;6505;51.114;13.128;2023-04-08T07:16:45;13.30;60.00
12874;DHT22;6505;51.114;13.128;2023-04-08T07:19:13;13.30;60.10
12874;DHT22;6505;51.114;13.128;2023-04-08T07:21:42;13.20;60.00
12874;DHT22;6505;51.114;13.128;2023-04-08T07:24:10;13.30;60.00
12874;DHT22;6505;51.114;13.128;2023-04-08T07:26:38;13.30;60.30
12874;DHT22;6505;51.114;13.128;2023-04-08T07:29:06;13.30;60.60
12874;DHT22;6505;51.114;13.128;2023-04-08T07:31:34;13.30;60.90
12874;DHT22;6505;51.114;13.128;2023-04-08T07:34:02;13.30;60.60
12874;DHT22;6505;51.114;13.128;2023-04-08T07:36:30;13.30;61.70
12874;DHT22;6505;51.114;13.128;2023-04-08T07:38:59;13.30;61.30
12874;DHT22;6505;51.114;13.128;2023-04-08T07:41:28;13.30;61.60
12874;DHT22;6505;51.114;13.128;2023-04-08T07:43:56;13.30;61.40
12874;DHT22;6505;51.114;13.128;2023-04-08T07:46:24;13.30;61.60
12874;DHT22;6505;51.114;13.128;2023-04-08T07:48:52;13.40;61.70
12874;DHT22;6505;51.114;13.128;2023-04-08T07:51:19;13.30;62.00
12874;DHT22;6505;51.114;13.128;2023-04-08T07:53:47;13.30;61.80
12874;DHT22;6505;51.114;13.128;2023-04-08T07:56:17;13.30;62.10
12874;DHT22;6505;51.114;13.128;2023-04-08T07:58:45;13.30;62.00
12874;DHT22;6505;51.114;13.128;2023-04-08T08:01:16;13.30;62.20
12874;DHT22;6505;51.114;13.128;2023-04-08T08:03:46;13.40;62.50
12874;DHT22;6505;51.114;13.128;2023-04-08T08:06:15;13.30;62.40
12874;DHT22;6505;51.114;13.128;2023-04-08T08:08:43;13.40;62.40
12874;DHT22;6505;51.114;13.128;2023-04-08T08:11:11;13.40;62.40
12874;DHT22;6505;51.114;13.128;2023-04-08T08:13:40;13.40;62.60
12874;DHT22;6505;51.114;13.128;2023-04-08T08:16:09;13.30;62.60
12874;DHT22;6505;51.114;13.128;2023-04-08T08:18:38;13.40;62.90
12874;DHT22;6505;51.114;13.128;2023-04-08T08:21:07;13.40;63.20
12874;DHT22;6505;51.114;13.128;2023-04-08T08:23:35;13.40;63.20
12874;DHT22;6505;51.114;13.128;2023-04-08T08:26:06;13.40;63.20
12874;DHT22;6505;51.114;13.128;2023-04-08T08:28:36;13.40;63.70
12874;DHT22;6505;51.114;13.128;2023-04-08T08:31:06;13.40;63.70
12874;DHT22;6505;51.114;13.128;2023-04-08T08:33:34;13.40;63.50
12874;DHT22;6505;51.114;13.128;2023-04-08T08:36:02;13.40;63.30
12874;DHT22;6505;51.114;13.128;2023-04-08T08:38:31;13.40;63.80
12874;DHT22;6505;51.114;13.128;2023-04-08T08:40:59;13.40;63.50
12874;DHT22;6505;51.114;13.128;2023-04-08T08:43:29;13.40;63.60
12874;DHT22;6505;51.114;13.128;2023-04-08T08:45:59;13.50;63.80
12874;DHT22;6505;51.114;13.128;2023-04-08T08:48:28;13.50;63.60
12874;DHT22;6505;51.114;13.128;2023-04-08T08:50:58;13.50;63.70
12874;DHT22;6505;51.114;13.128;2023-04-08T08:53:28;13.50;63.60
12874;DHT22;6505;51.114;13.128;2023-04-08T08:56:01;13.50;63.70
12874;DHT22;6505;51.114;13.128;2023-04-08T08:58:32;13.60;63.40
12874;DHT22;6505;51.114;13.128;2023-04-08T09:01:00;13.60;63.60
12874;DHT22;6505;51.114;13.128;2023-04-08T09:03:29;13.60;63.90
12874;DHT22;6505;51.114;13.128;2023-04-08T09:06:00;13.60;63.70
12874;DHT22;6505;51.114;13.128;2023-04-08T09:08:30;13.70;64.30
12874;DHT22;6505;51.114;13.128;2023-04-08T09:11:13;13.70;63.60
12874;DHT22;6505;51.114;13.128;2023-04-08T09:13:42;13.70;62.50
12874;DHT22;6505;51.114;13.128;2023-04-08T09:16:12;13.80;62.30
12874;DHT22;6505;51.114;13.128;2023-04-08T09:18:46;13.80;61.50
12874;DHT22;6505;51.114;13.128;2023-04-08T09:21:16;13.80;61.00
12874;DHT22;6505;51.114;13.128;2023-04-08T09:23:50;13.80;60.80
12874;DHT22;6505;51.114;13.128;2023-04-08T09:26:21;13.90;60.40
12874;DHT22;6505;51.114;13.128;2023-04-08T09:29:01;13.90;59.30
12874;DHT22;6505;51.114;13.128;2023-04-08T09:31:44;13.80;59.20
12874;DHT22;6505;51.114;13.128;2023-04-08T09:34:15;14.00;59.10
12874;DHT22;6505;51.114;13.128;2023-04-08T09:36:46;14.00;58.80
12874;DHT22;6505;51.114;13.128;2023-04-08T09:39:14;14.00;58.50
12874;DHT22;6505;51.114;13.128;2023-04-08T09:41:43;14.00;57.60
12874;DHT22;6505;51.114;13.128;2023-04-08T09:44:11;14.10;57.90
12874;DHT22;6505;51.114;13.128;2023-04-08T09:46:58;14.10;57.00
12874;DHT22;6505;51.114;13.128;2023-04-08T09:49:36;14.10;57.40
12874;DHT22;6505;51.114;13.128;2023-04-08T09:52:07;14.10;56.40
12874;DHT22;6505;51.114;13.128;2023-04-08T09:54:43;14.10;56.70
12874;DHT22;6505;51.114;13.128;2023-04-08T09:57:27;14.10;56.70
12874;DHT22;6505;51.114;13.128;2023-04-08T10:00:08;14.10;56.30
12874;DHT22;6505;51.114;13.128;2023-04-08T10:02:45;14.10;56.60
12874;DHT22;6505;51.114;13.128;2023-04-08T10:05:23;14.10;56.60
12874;DHT22;6505;51.114;13.128;2023-04-08T10:07:52;14.20;56.20
12874;DHT22;6505;51.114;13.128;2023-04-08T10:10:23;14.10;55.60
12874;DHT22;6505;51.114;13.128;2023-04-08T10:12:52;14.10;55.90
12874;DHT22;6505;51.114;13.128;2023-04-08T10:15:22;14.10;55.90
12874;DHT22;6505;51.114;13.128;2023-04-08T10:17:54;14.20;56.00
12874;DHT22;6505;51.114;13.128;2023-04-08T10:20:46;14.20;55.80
12874;DHT22;6505;51.114;13.128;2023-04-08T10:23:16;14.20;55.90
12874;DHT22;6505;51.114;13.128;2023-04-08T10:25:47;14.20;55.90
12874;DHT22;6505;51.114;13.128;2023-04-08T10:28:33;14.30;56.00
12874;DHT22;6505;51.114;13.128;2023-04-08T10:31:01;14.30;56.00
12874;DHT22;6505;51.114;13.128;2023-04-08T10:33:31;14.30;56.30
12874;DHT22;6505;51.114;13.128;2023-04-08T10:36:14;14.40;56.40
12874;DHT22;6505;51.114;13.128;2023-04-08T10:38:43;14.40;56.10
12874;DHT22;6505;51.114;13.128;2023-04-08T10:41:12;14.50;56.20
12874;DHT22;6505;51.114;13.128;2023-04-08T10:43:47;14.50;56.40
12874;DHT22;6505;51.114;13.128;2023-04-08T10:46:15;14.50;56.00
12874;DHT22;6505;51.114;13.128;2023-04-08T10:48:43;14.60;56.00
12874;DHT22;6505;51.114;13.128;2023-04-08T10:51:12;14.60;55.60
12874;DHT22;6505;51.114;13.128;2023-04-08T10:53:41;14.60;55.40
12874;DHT22;6505;51.114;13.128;2023-04-08T10:56:10;14.60;55.40
12874;DHT22;6505;51.114;13.128;2023-04-08T10:58:47;14.60;55.40
12874;DHT22;6505;51.114;13.128;2023-04-08T11:01:17;14.60;55.20
12874;DHT22;6505;51.114;13.128;2023-04-08T11:03:46;14.60;55.20
12874;DHT22;6505;51.114;13.128;2023-04-08T11:06:14;14.60;55.30
12874;DHT22;6505;51.114;13.128;2023-04-08T11:08:44;14.60;55.50
12874;DHT22;6505;51.114;13.128;2023-04-08T11:11:13;14.60;55.80
12874;DHT22;6505;51.114;13.128;2023-04-08T11:13:44;14.70;55.70
12874;DHT22;6505;51.114;13.128;2023-04-08T11:16:19;14.70;55.50
12874;DHT22;6505;51.114;13.128;2023-04-08T11:18:49;14.80;55.10
12874;DHT22;6505;51.114;13.128;2023-04-08T11:21:18;14.80;54.70
12874;DHT22;6505;51.114;13.128;2023-04-08T11:23:49;14.80;54.50
12874;DHT22;6505;51.114;13.128;2023-04-08T11:26:19;14.80;54.50
12874;DHT22;6505;51.114;13.128;2023-04-08T11:28:47;14.80;54.10
12874;DHT22;6505;51.114;13.128;2023-04-08T11:31:17;14.80;54.00
12874;DHT22;6505;51.114;13.128;2023-04-08T11:33:52;14.90;53.90
12874;DHT22;6505;51.114;13.128;2023-04-08T11:36:22;14.90;53.70
12874;DHT22;6505;51.114;13.128;2023-04-08T11:38:54;14.90;53.70
12874;DHT22;6505;51.114;13.128;2023-04-08T11:41:22;14.90;53.50
12874;DHT22;6505;51.114;13.128;2023-04-08T11:43:51;14.90;53.60
12874;DHT22;6505;51.114;13.128;2023-04-08T11:46:20;14.90;53.80
12874;DHT22;6505;51.114;13.128;2023-04-08T11:48:59;14.90;53.80
12874;DHT22;6505;51.114;13.128;2023-04-08T11:51:28;14.90;53.90
12874;DHT22;6505;51.114;13.128;2023-04-08T11:53:58;14.90;53.90
12874;DHT22;6505;51.114;13.128;2023-04-08T11:56:27;14.80;53.70
12874;DHT22;6505;51.114;13.128;2023-04-08T11:58:59;14.80;53.70
12874;DHT22;6505;51.114;13.128;2023-04-08T12:01:27;14.80;53.70
12874;DHT22;6505;51.114;13.128;2023-04-08T12:03:56;14.80;53.70
12874;DHT22;6505;51.114;13.128;2023-04-08T12:06:26;14.80;54.00
12874;DHT22;6505;51.114;13.128;2023-04-08T12:08:55;14.90;54.20
12874;DHT22;6505;51.114;13.128;2023-04-08T12:11:24;14.80;54.00
12874;DHT22;6505;51.114;13.128;2023-04-08T12:13:52;14.80;54.10
12874;DHT22;6505;51.114;13.128;2023-04-08T12:16:20;14.80;54.30
12874;DHT22;6505;51.114;13.128;2023-04-08T12:18:48;14.90;54.40
12874;DHT22;6505;51.114;13.128;2023-04-08T12:21:16;14.80;54.30
12874;DHT22;6505;51.114;13.128;2023-04-08T12:23:44;14.90;54.20
12874;DHT22;6505;51.114;13.128;2023-04-08T12:26:12;14.80;54.20
12874;DHT22;6505;51.114;13.128;2023-04-08T12:28:41;14.90;54.30
12874;DHT22;6505;51.114;13.128;2023-04-08T12:31:09;14.90;54.60
12874;DHT22;6505;51.114;13.128;2023-04-08T12:33:37;14.90;54.70
12874;DHT22;6505;51.114;13.128;2023-04-08T12:36:06;14.90;54.80
12874;DHT22;6505;51.114;13.128;2023-04-08T12:38:34;14.90;54.80
12874;DHT22;6505;51.114;13.128;2023-04-08T12:41:03;14.90;54.90
12874;DHT22;6505;51.114;13.128;2023-04-08T12:43:31;14.90;54.90
12874;DHT22;6505;51.114;13.128;2023-04-08T12:46:01;14.90;54.80
12874;DHT22;6505;51.114;13.128;2023-04-08T12:48:29;14.90;54.70
12874;DHT22;6505;51.114;13.128;2023-04-08T12:50:57;14.90;54.70
12874;DHT22;6505;51.114;13.128;2023-04-08T12:53:25;14.90;54.40
12874;DHT22;6505;51.114;13.128;2023-04-08T12:55:53;14.90;54.50
12874;DHT22;6505;51.114;13.128;2023-04-08T12:58:23;14.90;54.70
12874;DHT22;6505;51.114;13.128;2023-04-08T13:00:51;14.90;54.70
12874;DHT22;6505;51.114;13.128;2023-04-08T13:03:21;14.90;54.50
12874;DHT22;6505;51.114;13.128;2023-04-08T13:05:49;14.90;54.40
12874;DHT22;6505;51.114;13.128;2023-04-08T13:08:17;14.90;54.60
12874;DHT22;6505;51.114;13.128;2023-04-08T13:10:45;14.90;54.50
12874;DHT22;6505;51.114;13.128;2023-04-08T13:13:13;14.90;54.80
12874;DHT22;6505;51.114;13.128;2023-04-08T13:15:41;14.90;54.80
12874;DHT22;6505;51.114;13.128;2023-04-08T13:18:10;14.80;54.70
12874;DHT22;6505;51.114;13.128;2023-04-08T13:20:39;14.80;54.70
12874;DHT22;6505;51.114;13.128;2023-04-08T13:23:07;14.80;54.70
12874;DHT22;6505;51.114;13.128;2023-04-08T13:25:35;14.80;54.90
12874;DHT22;6505;51.114;13.128;2023-04-08T13:28:03;14.80;54.50
12874;DHT22;6505;51.114;13.128;2023-04-08T13:30:31;14.80;55.10
12874;DHT22;6505;51.114;13.128;2023-04-08T13:32:59;14.80;55.20
12874;DHT22;6505;51.114;13.128;2023-04-08T13:35:27;14.80;54.90
12874;DHT22;6505;51.114;13.128;2023-04-08T13:37:57;14.80;54.90
12874;DHT22;6505;51.114;13.128;2023-04-08T13:40:24;14.80;55.00
12874;DHT22;6505;51.114;13.128;2023-04-08T13:42:53;14.80;54.70
12874;DHT22;6505;51.114;13.128;2023-04-08T13:45:21;14.80;54.70
12874;DHT22;6505;51.114;13.128;2023-04-08T13:47:49;14.80;54.80
12874;DHT22;6505;51.114;13.128;2023-04-08T13:50:18;14.80;54.70
12874;DHT22;6505;51.114;13.128;2023-04-08T13:52:46;14.90;54.80
12874;DHT22;6505;51.114;13.128;2023-04-08T13:55:15;14.90;54.70
12874;DHT22;6505;51.114;13.128;2023-04-08T13:57:43;14.90;54.40
12874;DHT22;6505;51.114;13.128;2023-04-08T14:00:12;14.90;54.40
12874;DHT22;6505;51.114;13.128;2023-04-08T14:02:40;14.90;55.00
12874;DHT22;6505;51.114;13.128;2023-04-08T14:05:09;14.90;54.40
12874;DHT22;6505;51.114;13.128;2023-04-08T14:07:37;14.90;54.00
12874;DHT22;6505;51.114;13.128;2023-04-08T14:10:06;14.90;53.80
12874;DHT22;6505;51.114;13.128;2023-04-08T14:12:36;14.90;53.90
12874;DHT22;6505;51.114;13.128;2023-04-08T14:15:05;14.90;53.70
12874;DHT22;6505;51.114;13.128;2023-04-08T14:17:33;14.90;53.90
12874;DHT22;6505;51.114;13.128;2023-04-08T14:20:03;14.90;53.90
12874;DHT22;6505;51.114;13.128;2023-04-08T14:22:32;14.90;54.20
12874;DHT22;6505;51.114;13.128;2023-04-08T14:25:00;14.90;53.90
12874;DHT22;6505;51.114;13.128;2023-04-08T14:27:28;14.90;53.40
12874;DHT22;6505;51.114;13.128;2023-04-08T14:29:57;14.90;53.20
12874;DHT22;6505;51.114;13.128;2023-04-08T14:32:25;14.90;53.30
12874;DHT22;6505;51.114;13.128;2023-04-08T14:34:53;14.90;53.10
12874;DHT22;6505;51.114;13.128;2023-04-08T14:37:21;14.90;53.20
12874;DHT22;6505;51.114;13.128;2023-04-08T14:39:49;14.90;53.50
12874;DHT22;6505;51.114;13.128;2023-04-08T14:42:17;14.80;53.40
12874;DHT22;6505;51.114;13.128;2023-04-08T14:44:46;14.90;53.50
12874;DHT22;6505;51.114;13.128;2023-04-08T14:47:15;14.80;53.40
12874;DHT22;6505;51.114;13.128;2023-04-08T14:49:44;14.80;53.50
12874;DHT22;6505;51.114;13.128;2023-04-08T14:52:12;14.80;53.40
12874;DHT22;6505;51.114;13.128;2023-04-08T14:54:40;14.80;54.00
12874;DHT22;6505;51.114;13.128;2023-04-08T14:57:09;14.80;53.30
12874;DHT22;6505;51.114;13.128;2023-04-08T14:59:39;14.80;53.30
12874;DHT22;6505;51.114;13.128;2023-04-08T15:02:07;14.80;53.40
12874;DHT22;6505;51.114;13.128;2023-04-08T15:04:37;14.70;53.60
12874;DHT22;6505;51.114;13.128;2023-04-08T15:07:05;14.70;53.80
12874;DHT22;6505;51.114;13.128;2023-04-08T15:09:33;14.70;54.10
12874;DHT22;6505;51.114;13.128;2023-04-08T15:12:01;14.70;54.10
12874;DHT22;6505;51.114;13.128;2023-04-08T15:14:30;14.70;54.20
12874;DHT22;6505;51.114;13.128;2023-04-08T15:16:58;14.70;54.00
12874;DHT22;6505;51.114;13.128;2023-04-08T15:19:26;14.70;54.10
12874;DHT22;6505;51.114;13.128;2023-04-08T15:21:55;14.60;53.70
12874;DHT22;6505;51.114;13.128;2023-04-08T15:24:23;14.60;53.70
12874;DHT22;6505;51.114;13.128;2023-04-08T15:26:51;14.60;53.50
12874;DHT22;6505;51.114;13.128;2023-04-08T15:29:21;14.60;53.60
12874;DHT22;6505;51.114;13.128;2023-04-08T15:31:50;14.60;53.60
12874;DHT22;6505;51.114;13.128;2023-04-08T15:34:18;14.60;53.50
12874;DHT22;6505;51.114;13.128;2023-04-08T15:36:46;14.60;53.50
12874;DHT22;6505;51.114;13.128;2023-04-08T15:39:15;14.60;53.40
12874;DHT22;6505;51.114;13.128;2023-04-08T15:41:43;14.60;53.20
12874;DHT22;6505;51.114;13.128;2023-04-08T15:44:11;14.60;53.20